createdAt,value
2022-07-30T00:01:35.679Z,83.09
2022-07-30T00:04:38.751Z,83.36
2022-07-30T00:07:42.606Z,84.59
2022-07-30T00:10:45.970Z,86.17
2022-07-30T00:13:52.590Z,87.51
2022-07-30T00:16:55.248Z,87.60
2022-07-30T00:19:57.977Z,87.17
2022-07-30T00:23:05.626Z,87.33
2022-07-30T00:26:08.129Z,87.29
2022-07-30T00:29:10.743Z,85.40
2022-07-30T00:32:13.245Z,84.11
2022-07-30T00:35:15.840Z,82.48
2022-07-30T00:38:19.914Z,80.70
2022-07-30T00:41:22.494Z,79.91
2022-07-30T00:44:25.138Z,78.89
2022-07-30T00:47:27.660Z,79.15
2022-07-30T00:50:30.169Z,79.27
2022-07-30T00:53:34.807Z,79.32
2022-07-30T00:56:37.461Z,79.67
2022-07-30T00:59:40.617Z,80.52
2022-07-30T01:02:43.231Z,80.08
2022-07-30T01:05:45.884Z,80.30
2022-07-30T01:08:49.701Z,81.23
2022-07-30T01:11:52.350Z,81.35
2022-07-30T01:14:57.152Z,81.88
2022-07-30T01:18:03.303Z,82.24
2022-07-30T01:21:10.497Z,82.17
2022-07-30T01:24:23.391Z,83.03
2022-07-30T01:27:30.823Z,82.93
2022-07-30T01:30:39.603Z,83.16
2022-07-30T01:33:45.785Z,83.67
2022-07-30T01:36:48.606Z,83.92
2022-07-30T01:39:52.995Z,84.18
2022-07-30T01:42:59.719Z,83.42
2022-07-30T01:46:03.471Z,82.69
2022-07-30T01:49:08.414Z,82.41
2022-07-30T01:52:13.168Z,82.53
2022-07-30T01:55:19.460Z,83.01
2022-07-30T01:58:28.029Z,83.23
2022-07-30T02:01:30.712Z,84.09
2022-07-30T02:04:33.390Z,84.66
2022-07-30T02:07:42.151Z,85.03
2022-07-30T02:10:50.097Z,85.02
2022-07-30T02:13:55.715Z,84.94
2022-07-30T02:16:59.198Z,84.84
2022-07-30T02:20:04.765Z,84.71
2022-07-30T02:23:16.135Z,85.21
2022-07-30T02:26:22.534Z,86.05
2022-07-30T02:29:26.951Z,85.85
2022-07-30T02:32:34.287Z,85.89
2022-07-30T02:35:39.016Z,88.51
2022-07-30T02:38:42.876Z,90.34
2022-07-30T02:41:49.836Z,90.03
2022-07-30T02:44:55.501Z,90.32
2022-07-30T02:48:01.825Z,89.68
2022-07-30T02:51:05.860Z,88.46
2022-07-30T02:54:10.883Z,87.70
2022-07-30T02:57:17.835Z,87.61
2022-07-30T03:00:23.039Z,88.15
2022-07-30T03:03:29.371Z,89.61
2022-07-30T03:06:33.813Z,90.75
2022-07-30T03:09:50.872Z,90.90
2022-07-30T03:12:57.142Z,92.43
2022-07-30T03:16:03.710Z,92.34
2022-07-30T03:19:09.868Z,91.90
2022-07-30T03:22:15.725Z,92.58
2022-07-30T03:25:23.816Z,92.89
2022-07-30T03:28:26.773Z,92.47
2022-07-30T03:31:36.494Z,92.54
2022-07-30T03:34:40.677Z,91.21
2022-07-30T03:37:44.072Z,91.67
2022-07-30T03:40:47.535Z,92.08
2022-07-30T03:43:51.889Z,92.76
2022-07-30T03:46:57.813Z,92.36
2022-07-30T03:50:00.541Z,92.69
2022-07-30T03:53:04.663Z,92.73
2022-07-30T03:56:08.909Z,92.31
2022-07-30T03:59:14.035Z,92.09
2022-07-30T04:02:17.913Z,91.77
2022-07-30T04:05:20.504Z,91.14
2022-07-30T04:08:23.272Z,90.52
2022-07-30T04:11:41.678Z,91.01
2022-07-30T04:14:45.990Z,90.49
2022-07-30T04:17:52.629Z,90.35
2022-07-30T04:20:55.849Z,90.35
2022-07-30T04:24:02.147Z,90.51
2022-07-30T04:27:07.985Z,89.54
2022-07-30T04:30:11.905Z,89.43
2022-07-30T04:33:15.847Z,89.97
2022-07-30T04:36:18.372Z,89.54
2022-07-30T04:39:20.923Z,90.41
2022-07-30T04:42:23.409Z,89.64
2022-07-30T04:45:26.181Z,89.53
2022-07-30T04:48:30.436Z,88.34
2022-07-30T04:51:35.635Z,88.32
2022-07-30T04:54:44.271Z,88.07
2022-07-30T04:57:49.065Z,87.85
2022-07-30T05:00:53.137Z,87.66
2022-07-30T05:03:58.754Z,87.65
2022-07-30T05:07:02.725Z,87.67
2022-07-30T05:10:06.592Z,87.67
2022-07-30T05:13:13.152Z,86.73
2022-07-30T05:16:15.998Z,87.09
2022-07-30T05:19:20.867Z,86.23
2022-07-30T05:22:25.579Z,86.16
2022-07-30T05:25:28.163Z,86.00
2022-07-30T05:28:30.693Z,85.66
2022-07-30T05:31:33.855Z,86.60
2022-07-30T05:34:37.761Z,85.56
2022-07-30T05:37:40.280Z,84.45
2022-07-30T05:40:42.911Z,84.04
2022-07-30T05:43:45.440Z,84.16
2022-07-30T05:46:47.938Z,82.65
2022-07-30T05:49:51.831Z,83.08
2022-07-30T05:52:56.001Z,83.38
2022-07-30T05:55:59.168Z,82.53
2022-07-30T05:59:01.661Z,81.82
2022-07-30T06:02:04.488Z,82.61
2022-07-30T06:05:09.430Z,81.09
2022-07-30T06:08:12.081Z,82.05
2022-07-30T06:11:14.590Z,79.65
2022-07-30T06:14:21.117Z,78.60
2022-07-30T06:17:23.620Z,79.02
2022-07-30T06:20:27.479Z,78.91
2022-07-30T06:23:29.968Z,76.94
2022-07-30T06:26:32.503Z,76.84
2022-07-30T06:29:35.011Z,76.57
2022-07-30T06:32:37.681Z,74.81
2022-07-30T06:35:41.560Z,73.99
2022-07-30T06:38:44.064Z,73.90
2022-07-30T06:41:46.628Z,73.52
2022-07-30T06:44:49.129Z,72.10
2022-07-30T06:47:51.627Z,70.64
2022-07-30T06:50:56.059Z,71.16
2022-07-30T06:53:58.537Z,69.74
2022-07-30T06:57:01.259Z,69.20
2022-07-30T07:00:06.040Z,67.99
2022-07-30T07:03:11.618Z,68.10
2022-07-30T07:06:15.800Z,67.79
2022-07-30T07:09:18.421Z,66.90
2022-07-30T07:12:20.957Z,65.79
2022-07-30T07:15:36.916Z,65.77
2022-07-30T07:18:40.821Z,65.16
2022-07-30T07:21:44.945Z,64.50
2022-07-30T07:24:47.444Z,65.68
2022-07-30T07:28:12.762Z,64.97
2022-07-30T07:32:05.618Z,63.87
2022-07-30T07:34:36.864Z,64.27
2022-07-30T07:37:40.864Z,64.30
2022-07-30T07:40:43.381Z,64.02
2022-07-30T07:43:45.954Z,64.35
2022-07-30T07:46:48.508Z,64.55
2022-07-30T07:49:51.026Z,63.85
2022-07-30T07:52:55.120Z,63.51
2022-07-30T07:55:59.644Z,62.20
2022-07-30T07:59:02.248Z,62.48
2022-07-30T08:02:06.694Z,63.75
2022-07-30T08:05:12.576Z,64.40
2022-07-30T08:08:16.481Z,63.07
2022-07-30T08:11:19.048Z,62.06
2022-07-30T08:14:21.523Z,61.10
2022-07-30T08:17:24.436Z,60.50
2022-07-30T08:20:30.731Z,58.38
2022-07-30T08:23:42.177Z,60.73
2022-07-30T08:26:45.063Z,58.34
2022-07-30T08:29:47.552Z,58.23
2022-07-30T08:32:50.053Z,58.83
2022-07-30T08:35:59.355Z,55.07
2022-07-30T08:39:08.559Z,56.01
2022-07-30T08:42:14.019Z,55.40
2022-07-30T08:45:18.539Z,53.80
2022-07-30T08:48:22.411Z,53.84
2022-07-30T08:51:25.419Z,53.82
2022-07-30T08:54:29.482Z,52.07
2022-07-30T08:57:32.900Z,52.14
2022-07-30T09:00:35.501Z,51.06
2022-07-30T09:03:44.222Z,50.98
2022-07-30T09:06:47.210Z,52.23
2022-07-30T09:09:52.125Z,51.23
2022-07-30T09:12:54.639Z,51.35
2022-07-30T09:15:58.038Z,50.56
2022-07-30T09:19:13.445Z,50.70
2022-07-30T09:22:17.301Z,49.94
2022-07-30T09:25:39.077Z,50.83
2022-07-30T09:28:41.572Z,49.92
2022-07-30T09:31:56.810Z,49.46
2022-07-30T09:35:13.803Z,49.04
2022-07-30T09:38:16.877Z,50.61
2022-07-30T09:41:41.523Z,48.81
2022-07-30T09:44:44.571Z,48.76
2022-07-30T09:47:48.422Z,46.58
2022-07-30T09:50:51.423Z,44.45
2022-07-30T09:53:56.444Z,47.40
2022-07-30T09:57:22.796Z,46.60
2022-07-30T10:00:31.121Z,47.15
2022-07-30T10:03:42.114Z,43.00
2022-07-30T10:06:44.904Z,42.62
2022-07-30T10:09:49.878Z,45.51
2022-07-30T10:12:57.892Z,44.03
2022-07-30T10:16:00.887Z,43.32
2022-07-30T10:19:04.742Z,43.84
2022-07-30T10:22:11.629Z,45.37
2022-07-30T10:25:16.309Z,42.80
2022-07-30T10:28:20.958Z,44.81
2022-07-30T10:31:48.229Z,43.94
2022-07-30T10:34:50.117Z,42.87
2022-07-30T10:37:53.756Z,42.39
2022-07-30T10:41:01.612Z,42.27
2022-07-30T10:44:22.053Z,42.78
2022-07-30T10:47:33.548Z,42.92
2022-07-30T10:50:51.208Z,42.67
2022-07-30T10:53:54.260Z,41.73
2022-07-30T10:57:05.170Z,42.94
2022-07-30T11:00:15.228Z,43.30
2022-07-30T11:03:22.052Z,43.69
2022-07-30T11:06:29.176Z,43.29
2022-07-30T11:09:41.062Z,43.25
2022-07-30T11:12:55.373Z,43.91
2022-07-30T11:16:01.572Z,41.63
2022-07-30T11:19:56.663Z,44.17
2022-07-30T11:22:36.096Z,43.22
2022-07-30T11:25:51.049Z,42.50
2022-07-30T11:28:54.918Z,42.75
2022-07-30T11:32:01.812Z,42.21
2022-07-30T11:35:23.240Z,40.45
2022-07-30T11:38:26.048Z,42.03
2022-07-30T11:41:28.584Z,40.93
2022-07-30T11:44:31.357Z,39.66
2022-07-30T11:47:35.342Z,40.29
2022-07-30T11:50:38.487Z,38.87
2022-07-30T11:53:41.058Z,38.37
2022-07-30T11:56:51.295Z,38.25
2022-07-30T11:59:54.900Z,37.97
2022-07-30T12:03:02.408Z,39.90
2022-07-30T12:06:07.815Z,39.49
2022-07-30T12:09:10.473Z,39.33
2022-07-30T12:12:23.617Z,40.44
2022-07-30T12:15:30.943Z,41.04
2022-07-30T12:18:34.861Z,42.31
2022-07-30T12:21:37.832Z,41.81
2022-07-30T12:24:40.569Z,42.12
2022-07-30T12:27:51.822Z,42.59
2022-07-30T12:30:55.863Z,40.16
2022-07-30T12:34:00.664Z,39.22
2022-07-30T12:37:10.795Z,39.22
2022-07-30T12:40:16.557Z,39.57
2022-07-30T12:43:19.212Z,39.09
2022-07-30T12:46:24.086Z,40.06
2022-07-30T12:49:36.788Z,42.42
2022-07-30T12:52:50.590Z,40.23
2022-07-30T12:55:53.247Z,40.53
2022-07-30T12:58:57.496Z,40.45
2022-07-30T13:02:03.443Z,41.03
2022-07-30T13:05:11.683Z,41.65
2022-07-30T13:08:14.807Z,40.70
2022-07-30T13:11:18.645Z,41.54
2022-07-30T13:14:23.648Z,39.43
2022-07-30T13:17:29.316Z,38.64
2022-07-30T13:20:33.136Z,38.10
2022-07-30T13:23:36.830Z,36.93
2022-07-30T13:26:39.467Z,35.71
2022-07-30T13:29:41.964Z,36.67
2022-07-30T13:32:44.465Z,37.07
2022-07-30T13:35:48.275Z,39.92
2022-07-30T13:38:52.152Z,40.03
2022-07-30T13:41:55.041Z,40.18
2022-07-30T13:44:57.520Z,41.83
2022-07-30T13:48:00.072Z,41.11
2022-07-30T13:51:05.661Z,39.11
2022-07-30T13:54:10.721Z,39.64
2022-07-30T13:57:16.728Z,39.62
2022-07-30T14:00:19.478Z,40.18
2022-07-30T14:03:22.217Z,40.81
2022-07-30T14:06:26.140Z,38.43
2022-07-30T14:09:29.081Z,38.16
2022-07-30T14:12:31.625Z,38.35
2022-07-30T14:15:34.840Z,40.33
2022-07-30T14:18:37.378Z,38.96
2022-07-30T14:21:41.847Z,39.38
2022-07-30T14:24:44.333Z,38.78
2022-07-30T14:27:48.127Z,39.80
2022-07-30T14:30:50.959Z,39.86
2022-07-30T14:33:53.459Z,39.68
2022-07-30T14:36:57.344Z,39.44
2022-07-30T14:39:59.847Z,38.84
2022-07-30T14:43:02.398Z,39.02
2022-07-30T14:46:04.948Z,38.51
2022-07-30T14:49:08.977Z,37.86
2022-07-30T14:52:12.996Z,36.89
2022-07-30T14:55:15.622Z,36.46
2022-07-30T14:58:18.143Z,37.32
2022-07-30T15:01:20.853Z,36.99
2022-07-30T15:04:23.894Z,36.92
2022-07-30T15:07:29.274Z,35.65
2022-07-30T15:10:35.140Z,36.51
2022-07-30T15:13:38.513Z,36.95
2022-07-30T15:16:42.795Z,36.04
2022-07-30T15:19:49.370Z,37.67
2022-07-30T15:22:55.242Z,38.88
2022-07-30T15:25:57.759Z,39.60
2022-07-30T15:29:00.340Z,37.80
2022-07-30T15:32:03.212Z,38.58
2022-07-30T15:35:13.210Z,39.08
2022-07-30T15:38:17.685Z,39.12
2022-07-30T15:41:20.196Z,39.30
2022-07-30T15:44:22.693Z,39.54
2022-07-30T15:47:25.515Z,37.67
2022-07-30T15:50:28.470Z,37.85
2022-07-30T15:53:32.852Z,37.88
2022-07-30T15:56:35.395Z,39.51
2022-07-30T15:59:37.897Z,36.62
2022-07-30T16:02:41.187Z,37.62
2022-07-30T16:05:52.110Z,37.07
2022-07-30T16:08:56.632Z,38.20
2022-07-30T16:11:59.824Z,37.64
2022-07-30T16:15:02.433Z,39.43
2022-07-30T16:18:06.299Z,38.46
2022-07-30T16:21:08.911Z,36.91
2022-07-30T16:24:12.746Z,37.89
2022-07-30T16:27:15.273Z,36.73
2022-07-30T16:30:17.913Z,35.53
2022-07-30T16:33:21.284Z,37.19
2022-07-30T16:36:23.881Z,37.32
2022-07-30T16:39:27.823Z,38.14
2022-07-30T16:42:30.408Z,37.18
2022-07-30T16:45:33.287Z,37.49
2022-07-30T16:48:35.856Z,38.57
2022-07-30T16:51:38.455Z,37.17
2022-07-30T16:54:42.347Z,38.70
2022-07-30T16:57:44.873Z,38.08
2022-07-30T17:00:47.425Z,38.22
2022-07-30T17:03:49.961Z,38.29
2022-07-30T17:06:52.521Z,38.72
2022-07-30T17:09:56.376Z,38.31
2022-07-30T17:13:01.381Z,38.75
2022-07-30T17:16:04.080Z,39.66
2022-07-30T17:19:09.091Z,39.15
2022-07-30T17:22:12.412Z,39.14
2022-07-30T17:25:16.408Z,39.54
2022-07-30T17:28:19.568Z,38.84
2022-07-30T17:31:27.931Z,39.35
2022-07-30T17:34:30.453Z,39.22
2022-07-30T17:37:33.071Z,39.41
2022-07-30T17:40:36.928Z,39.25
2022-07-30T17:43:39.444Z,40.94
2022-07-30T17:46:42.038Z,41.32
2022-07-30T17:49:45.014Z,40.70
2022-07-30T17:52:47.640Z,40.64
2022-07-30T17:55:57.631Z,41.41
2022-07-30T17:59:00.895Z,41.80
2022-07-30T18:02:04.573Z,40.66
2022-07-30T18:05:08.894Z,42.29
2022-07-30T18:08:11.488Z,42.87
2022-07-30T18:11:15.420Z,42.57
2022-07-30T18:14:18.035Z,42.80
2022-07-30T18:17:20.684Z,42.35
2022-07-30T18:20:23.388Z,42.36
2022-07-30T18:23:25.924Z,42.01
2022-07-30T18:26:39.352Z,42.53
2022-07-30T18:29:42.298Z,44.45
2022-07-30T18:32:44.888Z,44.94
2022-07-30T18:35:47.579Z,46.90
2022-07-30T18:38:51.259Z,45.91
2022-07-30T18:41:55.184Z,46.38
2022-07-30T18:44:57.893Z,48.02
2022-07-30T18:48:00.416Z,49.40
2022-07-30T18:51:03.470Z,50.48
2022-07-30T18:54:06.237Z,52.87
2022-07-30T18:57:14.377Z,54.07
2022-07-30T19:00:34.497Z,55.13
2022-07-30T19:03:37.832Z,55.80
2022-07-30T19:06:40.776Z,56.33
2022-07-30T19:09:45.145Z,56.63
2022-07-30T19:12:49.114Z,57.27
2022-07-30T19:15:52.074Z,57.81
2022-07-30T19:18:54.637Z,58.41
2022-07-30T19:21:57.369Z,57.96
2022-07-30T19:24:59.915Z,58.30
2022-07-30T19:28:06.087Z,58.77
2022-07-30T19:31:08.719Z,59.11
2022-07-30T19:34:11.796Z,58.85
2022-07-30T19:37:14.347Z,58.96
2022-07-30T19:40:18.803Z,59.74
2022-07-30T19:43:23.917Z,60.07
2022-07-30T19:46:26.899Z,61.17
2022-07-30T19:49:29.868Z,62.02
2022-07-30T19:52:32.854Z,62.34
2022-07-30T19:55:37.591Z,63.31
2022-07-30T19:58:41.647Z,64.25
2022-07-30T20:01:44.738Z,65.32
2022-07-30T20:04:54.572Z,65.75
2022-07-30T20:07:57.343Z,66.93
2022-07-30T20:11:01.457Z,68.44
2022-07-30T20:14:05.359Z,69.47
2022-07-30T20:17:08.013Z,70.54
2022-07-30T20:20:11.620Z,71.26
2022-07-30T20:23:14.294Z,71.89
2022-07-30T20:26:16.907Z,71.82
2022-07-30T20:29:23.087Z,72.44
2022-07-30T20:32:27.372Z,73.58
2022-07-30T20:35:29.907Z,74.42
2022-07-30T20:38:33.788Z,75.43
2022-07-30T20:41:38.228Z,76.20
2022-07-30T20:44:43.575Z,77.18
2022-07-30T20:47:55.906Z,78.79
2022-07-30T20:50:58.974Z,79.92
2022-07-30T20:54:01.752Z,80.69
2022-07-30T20:57:06.378Z,80.83
2022-07-30T21:00:15.533Z,82.15
2022-07-30T21:03:21.315Z,81.60
2022-07-30T21:06:24.119Z,82.63
2022-07-30T21:09:29.527Z,83.99
2022-07-30T21:12:53.344Z,84.44
2022-07-30T21:16:03.325Z,85.71
2022-07-30T21:19:06.497Z,86.96
2022-07-30T21:22:09.096Z,87.81
2022-07-30T21:25:11.719Z,88.39
2022-07-30T21:32:01.274Z,90.92
2022-07-30T21:35:08.266Z,90.73
2022-07-30T21:38:11.225Z,90.98
2022-07-30T21:44:37.556Z,91.89
2022-07-30T21:47:47.562Z,92.50
2022-07-30T21:50:50.682Z,93.43
2022-07-30T21:53:53.533Z,92.11
2022-07-30T21:56:56.492Z,92.54
2022-07-30T22:00:00.996Z,93.18
2022-07-30T22:03:15.977Z,93.93
2022-07-30T22:06:28.057Z,94.75
2022-07-30T22:09:34.396Z,96.30
2022-07-30T22:12:37.209Z,98.29
2022-07-30T22:15:40.507Z,99.52
2022-07-30T22:18:45.018Z,99.66
2022-07-30T22:21:48.800Z,99.77
2022-07-30T22:24:53.577Z,99.94
2022-07-30T22:27:57.185Z,100.00
2022-07-30T22:30:59.804Z,100.00
2022-07-30T22:34:03.740Z,100.00
2022-07-30T22:37:16.374Z,100.00
2022-07-30T22:40:21.027Z,100.00
2022-07-30T22:43:35.617Z,100.00
2022-07-30T22:46:43.780Z,100.00
2022-07-30T22:49:52.704Z,100.00
2022-07-30T22:53:19.720Z,100.00
2022-07-30T22:56:25.258Z,100.00
2022-07-30T22:59:58.277Z,100.00
2022-07-30T23:02:51.162Z,100.00
2022-07-30T23:05:57.030Z,100.00
2022-07-30T23:08:59.784Z,100.00
2022-07-30T23:12:02.499Z,100.00
2022-07-30T23:12:31.193Z,90.39
2022-07-30T23:12:31.641Z,89.01
2022-07-30T23:15:07.456Z,100.00
2022-07-30T23:18:09.973Z,100.00
2022-07-30T23:21:14.115Z,100.00
2022-07-30T23:24:17.831Z,100.00
2022-07-30T23:27:20.469Z,100.00
2022-07-30T23:30:22.997Z,100.00
2022-07-30T23:33:33.681Z,100.00
2022-07-30T23:36:38.021Z,100.00
2022-07-30T23:39:40.549Z,100.00
2022-07-30T23:42:43.075Z,100.00
2022-07-30T23:45:45.635Z,100.00
2022-07-30T23:48:48.193Z,100.00
2022-07-30T23:51:52.289Z,100.00
2022-07-30T23:54:54.811Z,100.00
2022-07-30T23:57:57.976Z,100.00
